Terminal Aerodrome Forecast
Issued by NWS

Home | Current Version | Previous Version | Text Only | Print | Product List | Glossary On
Versions: 1 2 3 4 5 6 7 8 9 10 11 12 13 14 15 16 17 18 19 20 21 22 23 24
000
FTUS44 KLZK 231140
TAFADF
TAF
KADF 231140Z 2312/2412 VRB03KT 6SM RA BR VCTS SCT015 OVC030CB
      TEMPO 2312/2316 2SM RA BR OVC015
     FM231800 07003KT 6SM BR VCSH OVC015
     FM240100 09003KT 4SM BR VCSH OVC007=

USA.gov is the U.S. government's official web portal to all federal, state and local government web resources and services.